首页
METAR-TAF:

METAR-TAF

机场 :

艾拉島, 苏格兰

纬度: 55-40-55N, 经度: 006-15-24W, 海拔: 16米

当前天气观测

该预报发布于15小时和47分钟前的15:20 UTC
风速15节,风向
温度 12°C
湿度 71%
气压 1004 hPa
能见度10公里或以上
散云层高于3800英尺

METAR: EGPI 191520Z 36015KT 9999 SCT038 12/07 Q1004

时间: 08:07 (07:07 UTC)

预报

该预报发布于17小时和11分钟前的13:56 UTC
预报有效从19日的 15点(UTC)到 19日的 18点(UTC)
风速12节,风向
能见度10公里或以上
1500米以下无云,无积雨云
短暂存在
从 19日的 15点(UTC)到 19日的 18点(UTC)
风速15节,风向,有时为25节阵风

TAF: EGPI 191356Z 1915/1918 01012KT CAVOK TEMPO 1915/1918 01015G25KT

超过4000个机场的气象观测和天气预报(METAR&TAF报告)。

可查询的气象台以黄色和红色小点在地图上表示。

将鼠标移到小点上方,可查看气象台名称。

然后点击查看天气观测和预报。

如需切换地图:点击带黑十字的绿色按钮放大地图;点击带横线的绿色按钮缩小地图;或者点击绿色箭头查看邻近地区的地图。


METAR-TAF: